sensor_id;sensor_type;location;lat;lon;timestamp;P1;durP1;ratioP1;P2;durP2;ratioP2
21527;SDS011;10925;49.102;-0.370;2023-06-04T00:00:55;17.15;;;5.30;;
21527;SDS011;10925;49.102;-0.370;2023-06-04T00:03:24;16.10;;;5.50;;
21527;SDS011;10925;49.102;-0.370;2023-06-04T00:05:49;17.05;;;6.10;;
21527;SDS011;10925;49.102;-0.370;2023-06-04T00:08:16;13.57;;;5.43;;
21527;SDS011;10925;49.102;-0.370;2023-06-04T00:10:43;12.23;;;5.03;;
21527;SDS011;10925;49.102;-0.370;2023-06-04T00:13:10;18.42;;;5.55;;
21527;SDS011;10925;49.102;-0.370;2023-06-04T00:15:37;17.08;;;5.18;;
21527;SDS011;10925;49.102;-0.370;2023-06-04T00:18:03;14.75;;;5.50;;
21527;SDS011;10925;49.102;-0.370;2023-06-04T00:20:30;13.10;;;5.05;;
21527;SDS011;10925;49.102;-0.370;2023-06-04T00:22:57;17.58;;;5.72;;
21527;SDS011;10925;49.102;-0.370;2023-06-04T00:25:24;16.38;;;5.78;;
21527;SDS011;10925;49.102;-0.370;2023-06-04T00:27:51;14.15;;;5.63;;
21527;SDS011;10925;49.102;-0.370;2023-06-04T00:30:18;17.30;;;5.10;;
21527;SDS011;10925;49.102;-0.370;2023-06-04T00:35:47;17.58;;;5.80;;
21527;SDS011;10925;49.102;-0.370;2023-06-04T00:38:13;14.43;;;4.85;;
21527;SDS011;10925;49.102;-0.370;2023-06-04T00:40:40;12.15;;;4.63;;
21527;SDS011;10925;49.102;-0.370;2023-06-04T00:43:06;16.02;;;4.68;;
21527;SDS011;10925;49.102;-0.370;2023-06-04T00:45:33;17.42;;;5.10;;
21527;SDS011;10925;49.102;-0.370;2023-06-04T00:48:01;15.60;;;5.15;;
21527;SDS011;10925;49.102;-0.370;2023-06-04T00:50:28;10.32;;;4.70;;
21527;SDS011;10925;49.102;-0.370;2023-06-04T00:52:54;17.05;;;5.57;;
21527;SDS011;10925;49.102;-0.370;2023-06-04T00:55:21;14.30;;;5.50;;
21527;SDS011;10925;49.102;-0.370;2023-06-04T00:57:48;13.02;;;4.80;;
21527;SDS011;10925;49.102;-0.370;2023-06-04T01:00:15;12.98;;;5.43;;
21527;SDS011;10925;49.102;-0.370;2023-06-04T01:02:42;16.35;;;5.78;;
21527;SDS011;10925;49.102;-0.370;2023-06-04T01:07:54;13.02;;;5.07;;
21527;SDS011;10925;49.102;-0.370;2023-06-04T01:10:20;18.75;;;5.20;;
21527;SDS011;10925;49.102;-0.370;2023-06-04T01:12:48;11.88;;;4.80;;
21527;SDS011;10925;49.102;-0.370;2023-06-04T01:15:15;13.02;;;4.50;;
21527;SDS011;10925;49.102;-0.370;2023-06-04T01:17:46;15.60;;;4.82;;
21527;SDS011;10925;49.102;-0.370;2023-06-04T01:25:39;14.30;;;5.57;;
21527;SDS011;10925;49.102;-0.370;2023-06-04T01:28:08;15.85;;;4.78;;
21527;SDS011;10925;49.102;-0.370;2023-06-04T01:30:38;15.65;;;5.55;;
21527;SDS011;10925;49.102;-0.370;2023-06-04T01:33:08;18.50;;;4.88;;
21527;SDS011;10925;49.102;-0.370;2023-06-04T01:35:36;12.13;;;5.65;;
21527;SDS011;10925;49.102;-0.370;2023-06-04T01:38:03;14.82;;;6.00;;
21527;SDS011;10925;49.102;-0.370;2023-06-04T01:40:30;12.95;;;5.20;;
21527;SDS011;10925;49.102;-0.370;2023-06-04T01:42:57;13.45;;;5.03;;
21527;SDS011;10925;49.102;-0.370;2023-06-04T01:45:25;12.93;;;5.80;;
21527;SDS011;10925;49.102;-0.370;2023-06-04T01:47:53;14.30;;;5.15;;
21527;SDS011;10925;49.102;-0.370;2023-06-04T01:50:20;15.20;;;4.80;;
21527;SDS011;10925;49.102;-0.370;2023-06-04T01:52:46;15.50;;;5.50;;
21527;SDS011;10925;49.102;-0.370;2023-06-04T01:55:14;13.13;;;5.22;;
21527;SDS011;10925;49.102;-0.370;2023-06-04T01:57:41;11.38;;;5.40;;
21527;SDS011;10925;49.102;-0.370;2023-06-04T02:00:08;15.52;;;6.43;;
21527;SDS011;10925;49.102;-0.370;2023-06-04T02:02:42;16.42;;;5.47;;
21527;SDS011;10925;49.102;-0.370;2023-06-04T02:05:08;15.40;;;5.22;;
21527;SDS011;10925;49.102;-0.370;2023-06-04T02:07:34;18.83;;;5.07;;
21527;SDS011;10925;49.102;-0.370;2023-06-04T02:10:01;15.77;;;5.15;;
21527;SDS011;10925;49.102;-0.370;2023-06-04T02:12:27;16.15;;;5.43;;
21527;SDS011;10925;49.102;-0.370;2023-06-04T02:14:54;13.63;;;4.57;;
21527;SDS011;10925;49.102;-0.370;2023-06-04T02:17:21;16.98;;;4.97;;
21527;SDS011;10925;49.102;-0.370;2023-06-04T02:19:48;13.63;;;5.00;;
21527;SDS011;10925;49.102;-0.370;2023-06-04T02:22:17;11.63;;;4.80;;
21527;SDS011;10925;49.102;-0.370;2023-06-04T02:24:43;11.80;;;4.65;;
21527;SDS011;10925;49.102;-0.370;2023-06-04T02:27:10;14.63;;;5.30;;
21527;SDS011;10925;49.102;-0.370;2023-06-04T02:29:38;12.63;;;4.82;;
21527;SDS011;10925;49.102;-0.370;2023-06-04T02:32:05;13.57;;;5.10;;
21527;SDS011;10925;49.102;-0.370;2023-06-04T02:34:32;11.40;;;4.20;;
21527;SDS011;10925;49.102;-0.370;2023-06-04T02:37:00;13.95;;;4.80;;
21527;SDS011;10925;49.102;-0.370;2023-06-04T02:39:27;14.40;;;5.03;;
21527;SDS011;10925;49.102;-0.370;2023-06-04T02:41:54;14.23;;;5.20;;
21527;SDS011;10925;49.102;-0.370;2023-06-04T02:44:21;13.45;;;4.60;;
21527;SDS011;10925;49.102;-0.370;2023-06-04T02:46:48;13.85;;;4.50;;
21527;SDS011;10925;49.102;-0.370;2023-06-04T02:49:13;13.93;;;5.32;;
21527;SDS011;10925;49.102;-0.370;2023-06-04T02:51:40;11.43;;;4.97;;
21527;SDS011;10925;49.102;-0.370;2023-06-04T02:54:07;9.95;;;4.03;;
21527;SDS011;10925;49.102;-0.370;2023-06-04T02:56:33;19.23;;;5.40;;
21527;SDS011;10925;49.102;-0.370;2023-06-04T02:58:58;12.82;;;4.88;;
21527;SDS011;10925;49.102;-0.370;2023-06-04T03:01:25;13.55;;;4.93;;
21527;SDS011;10925;49.102;-0.370;2023-06-04T03:03:52;17.40;;;5.20;;
21527;SDS011;10925;49.102;-0.370;2023-06-04T03:06:20;15.18;;;4.97;;
21527;SDS011;10925;49.102;-0.370;2023-06-04T03:08:47;12.38;;;4.90;;
21527;SDS011;10925;49.102;-0.370;2023-06-04T03:11:14;16.05;;;4.70;;
21527;SDS011;10925;49.102;-0.370;2023-06-04T03:13:41;16.63;;;5.30;;
21527;SDS011;10925;49.102;-0.370;2023-06-04T03:16:08;16.70;;;5.05;;
21527;SDS011;10925;49.102;-0.370;2023-06-04T03:18:35;14.00;;;5.18;;
21527;SDS011;10925;49.102;-0.370;2023-06-04T03:21:06;12.18;;;4.85;;
21527;SDS011;10925;49.102;-0.370;2023-06-04T03:23:33;15.13;;;5.18;;
21527;SDS011;10925;49.102;-0.370;2023-06-04T03:26:01;14.48;;;5.20;;
21527;SDS011;10925;49.102;-0.370;2023-06-04T03:28:27;17.38;;;5.30;;
21527;SDS011;10925;49.102;-0.370;2023-06-04T03:30:53;14.80;;;5.45;;
21527;SDS011;10925;49.102;-0.370;2023-06-04T03:33:23;12.70;;;5.95;;
21527;SDS011;10925;49.102;-0.370;2023-06-04T03:35:50;15.20;;;5.97;;
21527;SDS011;10925;49.102;-0.370;2023-06-04T03:38:16;13.68;;;5.68;;
21527;SDS011;10925;49.102;-0.370;2023-06-04T03:40:42;18.42;;;5.65;;
21527;SDS011;10925;49.102;-0.370;2023-06-04T03:43:07;15.13;;;5.65;;
21527;SDS011;10925;49.102;-0.370;2023-06-04T03:45:35;17.42;;;6.15;;
21527;SDS011;10925;49.102;-0.370;2023-06-04T03:48:02;14.35;;;5.78;;
21527;SDS011;10925;49.102;-0.370;2023-06-04T03:50:29;19.30;;;6.25;;
21527;SDS011;10925;49.102;-0.370;2023-06-04T03:52:56;15.70;;;5.60;;
21527;SDS011;10925;49.102;-0.370;2023-06-04T03:55:24;14.48;;;5.55;;
21527;SDS011;10925;49.102;-0.370;2023-06-04T03:57:51;19.90;;;6.00;;
21527;SDS011;10925;49.102;-0.370;2023-06-04T04:00:18;16.52;;;5.30;;
21527;SDS011;10925;49.102;-0.370;2023-06-04T04:02:49;16.02;;;5.45;;
21527;SDS011;10925;49.102;-0.370;2023-06-04T04:05:16;17.10;;;5.93;;
21527;SDS011;10925;49.102;-0.370;2023-06-04T04:07:43;20.95;;;6.10;;
21527;SDS011;10925;49.102;-0.370;2023-06-04T04:10:10;12.30;;;5.43;;
21527;SDS011;10925;49.102;-0.370;2023-06-04T04:12:37;19.17;;;5.97;;
21527;SDS011;10925;49.102;-0.370;2023-06-04T04:15:05;18.92;;;5.97;;
21527;SDS011;10925;49.102;-0.370;2023-06-04T04:17:33;16.70;;;6.47;;
21527;SDS011;10925;49.102;-0.370;2023-06-04T04:20:00;17.90;;;5.95;;
21527;SDS011;10925;49.102;-0.370;2023-06-04T04:22:27;17.08;;;5.90;;
21527;SDS011;10925;49.102;-0.370;2023-06-04T04:24:54;17.13;;;5.90;;
21527;SDS011;10925;49.102;-0.370;2023-06-04T04:27:21;17.42;;;5.65;;
21527;SDS011;10925;49.102;-0.370;2023-06-04T04:29:49;16.63;;;6.00;;
21527;SDS011;10925;49.102;-0.370;2023-06-04T04:32:15;18.50;;;5.80;;
21527;SDS011;10925;49.102;-0.370;2023-06-04T04:34:50;15.10;;;6.40;;
21527;SDS011;10925;49.102;-0.370;2023-06-04T04:37:16;19.13;;;6.00;;
21527;SDS011;10925;49.102;-0.370;2023-06-04T04:39:44;23.15;;;5.93;;
21527;SDS011;10925;49.102;-0.370;2023-06-04T04:42:11;17.70;;;6.15;;
21527;SDS011;10925;49.102;-0.370;2023-06-04T04:44:37;12.88;;;5.60;;
21527;SDS011;10925;49.102;-0.370;2023-06-04T04:47:03;13.93;;;5.55;;
21527;SDS011;10925;49.102;-0.370;2023-06-04T04:49:30;15.90;;;5.43;;
21527;SDS011;10925;49.102;-0.370;2023-06-04T04:51:57;13.88;;;5.88;;
21527;SDS011;10925;49.102;-0.370;2023-06-04T04:54:24;19.90;;;5.43;;
21527;SDS011;10925;49.102;-0.370;2023-06-04T04:59:53;20.23;;;5.57;;
21527;SDS011;10925;49.102;-0.370;2023-06-04T05:02:21;18.52;;;5.82;;
21527;SDS011;10925;49.102;-0.370;2023-06-04T05:04:48;20.52;;;5.88;;
21527;SDS011;10925;49.102;-0.370;2023-06-04T05:07:15;10.88;;;5.07;;
21527;SDS011;10925;49.102;-0.370;2023-06-04T05:09:42;19.67;;;5.38;;
21527;SDS011;10925;49.102;-0.370;2023-06-04T05:12:09;11.73;;;5.18;;
21527;SDS011;10925;49.102;-0.370;2023-06-04T05:14:36;14.80;;;5.25;;
21527;SDS011;10925;49.102;-0.370;2023-06-04T05:17:04;13.18;;;4.78;;
21527;SDS011;10925;49.102;-0.370;2023-06-04T05:19:34;11.52;;;4.70;;
21527;SDS011;10925;49.102;-0.370;2023-06-04T05:22:00;14.05;;;4.90;;
21527;SDS011;10925;49.102;-0.370;2023-06-04T05:24:28;14.18;;;5.43;;
21527;SDS011;10925;49.102;-0.370;2023-06-04T05:26:55;11.90;;;4.40;;
21527;SDS011;10925;49.102;-0.370;2023-06-04T05:29:24;12.63;;;4.70;;
21527;SDS011;10925;49.102;-0.370;2023-06-04T05:31:52;13.15;;;4.30;;
21527;SDS011;10925;49.102;-0.370;2023-06-04T05:34:21;11.57;;;4.85;;
21527;SDS011;10925;49.102;-0.370;2023-06-04T05:36:49;13.98;;;3.65;;
21527;SDS011;10925;49.102;-0.370;2023-06-04T05:39:17;10.57;;;3.83;;
21527;SDS011;10925;49.102;-0.370;2023-06-04T05:42:05;12.80;;;3.97;;
21527;SDS011;10925;49.102;-0.370;2023-06-04T05:44:33;13.68;;;4.20;;
21527;SDS011;10925;49.102;-0.370;2023-06-04T05:47:03;11.50;;;4.68;;
21527;SDS011;10925;49.102;-0.370;2023-06-04T05:49:33;13.43;;;4.10;;
21527;SDS011;10925;49.102;-0.370;2023-06-04T05:52:00;10.98;;;4.20;;
21527;SDS011;10925;49.102;-0.370;2023-06-04T05:54:28;12.85;;;3.67;;
21527;SDS011;10925;49.102;-0.370;2023-06-04T05:56:55;10.20;;;3.75;;
21527;SDS011;10925;49.102;-0.370;2023-06-04T05:59:21;15.00;;;3.55;;
21527;SDS011;10925;49.102;-0.370;2023-06-04T06:01:48;11.00;;;3.08;;
21527;SDS011;10925;49.102;-0.370;2023-06-04T06:04:15;10.88;;;4.03;;
21527;SDS011;10925;49.102;-0.370;2023-06-04T06:06:43;8.27;;;3.30;;
21527;SDS011;10925;49.102;-0.370;2023-06-04T06:09:10;11.23;;;3.33;;
21527;SDS011;10925;49.102;-0.370;2023-06-04T06:11:37;10.45;;;3.50;;
21527;SDS011;10925;49.102;-0.370;2023-06-04T06:14:02;7.22;;;2.78;;
21527;SDS011;10925;49.102;-0.370;2023-06-04T06:16:29;7.53;;;2.60;;
21527;SDS011;10925;49.102;-0.370;2023-06-04T06:18:56;10.45;;;3.33;;
21527;SDS011;10925;49.102;-0.370;2023-06-04T06:21:23;8.20;;;2.97;;
21527;SDS011;10925;49.102;-0.370;2023-06-04T06:23:50;11.70;;;3.10;;
21527;SDS011;10925;49.102;-0.370;2023-06-04T06:26:16;10.02;;;3.53;;
21527;SDS011;10925;49.102;-0.370;2023-06-04T06:28:49;9.95;;;3.50;;
21527;SDS011;10925;49.102;-0.370;2023-06-04T06:31:16;7.55;;;2.95;;
21527;SDS011;10925;49.102;-0.370;2023-06-04T06:33:43;9.23;;;2.60;;
21527;SDS011;10925;49.102;-0.370;2023-06-04T06:36:10;6.50;;;2.58;;
21527;SDS011;10925;49.102;-0.370;2023-06-04T06:38:39;9.82;;;2.95;;
21527;SDS011;10925;49.102;-0.370;2023-06-04T06:41:06;11.50;;;2.83;;
21527;SDS011;10925;49.102;-0.370;2023-06-04T06:43:33;7.72;;;2.83;;
21527;SDS011;10925;49.102;-0.370;2023-06-04T06:46:00;10.73;;;3.08;;
21527;SDS011;10925;49.102;-0.370;2023-06-04T06:48:25;9.13;;;2.80;;
21527;SDS011;10925;49.102;-0.370;2023-06-04T06:50:53;14.27;;;3.10;;
21527;SDS011;10925;49.102;-0.370;2023-06-04T06:53:20;6.93;;;2.45;;
21527;SDS011;10925;49.102;-0.370;2023-06-04T06:55:45;10.93;;;2.45;;
21527;SDS011;10925;49.102;-0.370;2023-06-04T06:58:11;6.60;;;2.13;;
21527;SDS011;10925;49.102;-0.370;2023-06-04T07:00:37;7.45;;;2.00;;
21527;SDS011;10925;49.102;-0.370;2023-06-04T07:03:04;7.57;;;2.50;;
21527;SDS011;10925;49.102;-0.370;2023-06-04T07:05:31;5.63;;;2.53;;
21527;SDS011;10925;49.102;-0.370;2023-06-04T07:07:58;6.15;;;2.85;;
21527;SDS011;10925;49.102;-0.370;2023-06-04T07:10:29;9.15;;;2.63;;
21527;SDS011;10925;49.102;-0.370;2023-06-04T07:12:55;10.48;;;2.60;;
21527;SDS011;10925;49.102;-0.370;2023-06-04T07:15:20;5.10;;;2.28;;
21527;SDS011;10925;49.102;-0.370;2023-06-04T07:17:46;6.35;;;2.35;;
21527;SDS011;10925;49.102;-0.370;2023-06-04T07:20:11;5.70;;;3.55;;
21527;SDS011;10925;49.102;-0.370;2023-06-04T07:22:37;8.38;;;2.33;;
21527;SDS011;10925;49.102;-0.370;2023-06-04T07:25:04;6.80;;;2.20;;
21527;SDS011;10925;49.102;-0.370;2023-06-04T07:27:33;5.05;;;2.10;;
21527;SDS011;10925;49.102;-0.370;2023-06-04T07:30:00;6.50;;;2.35;;
21527;SDS011;10925;49.102;-0.370;2023-06-04T07:32:27;8.35;;;2.60;;
21527;SDS011;10925;49.102;-0.370;2023-06-04T07:34:54;10.43;;;2.20;;
21527;SDS011;10925;49.102;-0.370;2023-06-04T07:37:20;8.02;;;2.47;;
21527;SDS011;10925;49.102;-0.370;2023-06-04T07:39:47;6.65;;;2.30;;
21527;SDS011;10925;49.102;-0.370;2023-06-04T07:42:14;5.97;;;2.50;;
21527;SDS011;10925;49.102;-0.370;2023-06-04T07:44:41;6.75;;;2.50;;
21527;SDS011;10925;49.102;-0.370;2023-06-04T07:47:08;10.85;;;2.28;;
21527;SDS011;10925;49.102;-0.370;2023-06-04T07:49:34;6.90;;;2.13;;
21527;SDS011;10925;49.102;-0.370;2023-06-04T07:52:09;7.47;;;2.70;;
21527;SDS011;10925;49.102;-0.370;2023-06-04T07:54:36;6.45;;;2.15;;
21527;SDS011;10925;49.102;-0.370;2023-06-04T07:57:03;6.80;;;2.70;;
21527;SDS011;10925;49.102;-0.370;2023-06-04T07:59:29;4.97;;;2.40;;
21527;SDS011;10925;49.102;-0.370;2023-06-04T08:01:56;8.43;;;2.38;;
21527;SDS011;10925;49.102;-0.370;2023-06-04T08:04:23;7.47;;;2.47;;
21527;SDS011;10925;49.102;-0.370;2023-06-04T08:06:50;6.47;;;2.17;;
21527;SDS011;10925;49.102;-0.370;2023-06-04T08:09:15;4.00;;;1.92;;
21527;SDS011;10925;49.102;-0.370;2023-06-04T08:11:41;10.02;;;2.40;;
21527;SDS011;10925;49.102;-0.370;2023-06-04T08:14:08;7.93;;;2.55;;
21527;SDS011;10925;49.102;-0.370;2023-06-04T08:16:33;6.75;;;2.20;;
21527;SDS011;10925;49.102;-0.370;2023-06-04T08:19:00;6.38;;;2.63;;
21527;SDS011;10925;49.102;-0.370;2023-06-04T08:21:27;8.32;;;2.50;;
21527;SDS011;10925;49.102;-0.370;2023-06-04T08:23:54;6.35;;;2.60;;
21527;SDS011;10925;49.102;-0.370;2023-06-04T08:26:21;5.90;;;2.40;;
21527;SDS011;10925;49.102;-0.370;2023-06-04T08:28:50;7.63;;;2.53;;
21527;SDS011;10925;49.102;-0.370;2023-06-04T08:31:16;6.20;;;2.10;;
21527;SDS011;10925;49.102;-0.370;2023-06-04T08:33:46;7.35;;;2.38;;
21527;SDS011;10925;49.102;-0.370;2023-06-04T08:36:13;6.00;;;2.13;;
21527;SDS011;10925;49.102;-0.370;2023-06-04T08:38:40;8.95;;;2.40;;
21527;SDS011;10925;49.102;-0.370;2023-06-04T08:41:15;8.32;;;2.50;;
21527;SDS011;10925;49.102;-0.370;2023-06-04T08:43:42;9.15;;;2.30;;
21527;SDS011;10925;49.102;-0.370;2023-06-04T08:46:10;8.95;;;2.53;;
21527;SDS011;10925;49.102;-0.370;2023-06-04T08:48:38;5.28;;;2.33;;
21527;SDS011;10925;49.102;-0.370;2023-06-04T08:51:06;10.63;;;2.80;;
21527;SDS011;10925;49.102;-0.370;2023-06-04T08:53:35;9.68;;;3.10;;
21527;SDS011;10925;49.102;-0.370;2023-06-04T08:56:03;7.03;;;2.47;;
21527;SDS011;10925;49.102;-0.370;2023-06-04T08:58:31;8.55;;;2.88;;
21527;SDS011;10925;49.102;-0.370;2023-06-04T09:00:58;8.18;;;2.28;;
21527;SDS011;10925;49.102;-0.370;2023-06-04T09:03:25;4.78;;;2.25;;
21527;SDS011;10925;49.102;-0.370;2023-06-04T09:05:52;5.97;;;2.45;;
21527;SDS011;10925;49.102;-0.370;2023-06-04T09:08:21;8.20;;;2.63;;
21527;SDS011;10925;49.102;-0.370;2023-06-04T09:10:49;8.50;;;2.60;;
21527;SDS011;10925;49.102;-0.370;2023-06-04T09:13:18;5.30;;;2.00;;
21527;SDS011;10925;49.102;-0.370;2023-06-04T09:16:03;5.85;;;2.30;;
21527;SDS011;10925;49.102;-0.370;2023-06-04T09:18:32;8.80;;;2.47;;
21527;SDS011;10925;49.102;-0.370;2023-06-04T09:21:07;7.03;;;2.17;;
21527;SDS011;10925;49.102;-0.370;2023-06-04T09:23:45;7.55;;;2.55;;
21527;SDS011;10925;49.102;-0.370;2023-06-04T09:26:13;6.75;;;2.35;;
21527;SDS011;10925;49.102;-0.370;2023-06-04T09:28:41;4.95;;;2.47;;
21527;SDS011;10925;49.102;-0.370;2023-06-04T09:31:17;8.43;;;2.30;;
21527;SDS011;10925;49.102;-0.370;2023-06-04T09:33:43;5.28;;;2.38;;
21527;SDS011;10925;49.102;-0.370;2023-06-04T09:36:10;10.32;;;2.33;;
21527;SDS011;10925;49.102;-0.370;2023-06-04T09:38:37;11.20;;;2.17;;
21527;SDS011;10925;49.102;-0.370;2023-06-04T09:41:16;4.72;;;2.45;;
21527;SDS011;10925;49.102;-0.370;2023-06-04T09:43:43;12.82;;;3.15;;
21527;SDS011;10925;49.102;-0.370;2023-06-04T09:46:13;5.30;;;2.40;;
21527;SDS011;10925;49.102;-0.370;2023-06-04T09:48:41;7.47;;;2.08;;
21527;SDS011;10925;49.102;-0.370;2023-06-04T09:51:07;5.65;;;2.15;;
21527;SDS011;10925;49.102;-0.370;2023-06-04T09:53:54;4.65;;;2.38;;
21527;SDS011;10925;49.102;-0.370;2023-06-04T09:58:48;6.95;;;2.38;;
21527;SDS011;10925;49.102;-0.370;2023-06-04T10:01:15;4.60;;;1.88;;
21527;SDS011;10925;49.102;-0.370;2023-06-04T10:03:43;8.00;;;2.25;;
21527;SDS011;10925;49.102;-0.370;2023-06-04T10:06:13;6.68;;;2.45;;
21527;SDS011;10925;49.102;-0.370;2023-06-04T10:08:43;4.53;;;2.00;;
21527;SDS011;10925;49.102;-0.370;2023-06-04T10:11:12;6.25;;;2.50;;
21527;SDS011;10925;49.102;-0.370;2023-06-04T10:14:22;8.77;;;1.90;;
21527;SDS011;10925;49.102;-0.370;2023-06-04T10:16:31;6.72;;;1.90;;
21527;SDS011;10925;49.102;-0.370;2023-06-04T10:19:00;4.95;;;2.20;;
21527;SDS011;10925;49.102;-0.370;2023-06-04T10:21:27;11.23;;;2.30;;
21527;SDS011;10925;49.102;-0.370;2023-06-04T10:23:54;6.55;;;2.60;;
21527;SDS011;10925;49.102;-0.370;2023-06-04T10:26:21;5.47;;;2.20;;
21527;SDS011;10925;49.102;-0.370;2023-06-04T10:28:48;5.78;;;2.05;;
21527;SDS011;10925;49.102;-0.370;2023-06-04T10:31:15;6.45;;;2.30;;
21527;SDS011;10925;49.102;-0.370;2023-06-04T10:33:42;6.28;;;2.30;;
21527;SDS011;10925;49.102;-0.370;2023-06-04T10:36:18;5.65;;;2.05;;
21527;SDS011;10925;49.102;-0.370;2023-06-04T10:38:49;8.93;;;2.30;;
21527;SDS011;10925;49.102;-0.370;2023-06-04T10:41:17;9.30;;;2.25;;
21527;SDS011;10925;49.102;-0.370;2023-06-04T10:43:46;6.90;;;2.50;;
21527;SDS011;10925;49.102;-0.370;2023-06-04T10:46:14;7.20;;;2.42;;
21527;SDS011;10925;49.102;-0.370;2023-06-04T10:48:52;9.13;;;2.75;;
21527;SDS011;10925;49.102;-0.370;2023-06-04T10:51:29;8.43;;;2.72;;
21527;SDS011;10925;49.102;-0.370;2023-06-04T10:54:00;6.22;;;2.58;;
21527;SDS011;10925;49.102;-0.370;2023-06-04T10:56:27;7.47;;;2.63;;
21527;SDS011;10925;49.102;-0.370;2023-06-04T10:58:55;5.75;;;2.15;;
21527;SDS011;10925;49.102;-0.370;2023-06-04T11:01:28;6.18;;;2.47;;
21527;SDS011;10925;49.102;-0.370;2023-06-04T11:03:54;10.23;;;2.88;;
21527;SDS011;10925;49.102;-0.370;2023-06-04T11:06:22;8.52;;;2.83;;
21527;SDS011;10925;49.102;-0.370;2023-06-04T11:08:49;5.47;;;2.20;;
21527;SDS011;10925;49.102;-0.370;2023-06-04T11:11:16;7.25;;;3.20;;
21527;SDS011;10925;49.102;-0.370;2023-06-04T11:13:43;6.10;;;3.00;;
21527;SDS011;10925;49.102;-0.370;2023-06-04T11:18:43;6.03;;;2.15;;
21527;SDS011;10925;49.102;-0.370;2023-06-04T11:21:11;6.20;;;1.73;;
21527;SDS011;10925;49.102;-0.370;2023-06-04T11:23:41;9.25;;;2.60;;
21527;SDS011;10925;49.102;-0.370;2023-06-04T11:26:07;8.35;;;2.85;;
21527;SDS011;10925;49.102;-0.370;2023-06-04T11:28:33;7.15;;;2.10;;
21527;SDS011;10925;49.102;-0.370;2023-06-04T11:31:00;4.25;;;1.98;;
21527;SDS011;10925;49.102;-0.370;2023-06-04T11:33:42;8.90;;;2.80;;
21527;SDS011;10925;49.102;-0.370;2023-06-04T11:36:08;10.77;;;3.13;;
21527;SDS011;10925;49.102;-0.370;2023-06-04T11:38:34;7.47;;;2.47;;
21527;SDS011;10925;49.102;-0.370;2023-06-04T11:41:01;10.00;;;3.00;;
21527;SDS011;10925;49.102;-0.370;2023-06-04T11:43:28;7.82;;;2.78;;
21527;SDS011;10925;49.102;-0.370;2023-06-04T11:45:56;6.30;;;2.40;;
21527;SDS011;10925;49.102;-0.370;2023-06-04T11:48:22;13.75;;;2.60;;
21527;SDS011;10925;49.102;-0.370;2023-06-04T11:50:49;8.98;;;2.55;;
21527;SDS011;10925;49.102;-0.370;2023-06-04T11:53:16;10.75;;;2.92;;
21527;SDS011;10925;49.102;-0.370;2023-06-04T11:55:43;8.95;;;2.90;;
21527;SDS011;10925;49.102;-0.370;2023-06-04T11:58:10;13.30;;;3.00;;
21527;SDS011;10925;49.102;-0.370;2023-06-04T12:00:37;10.55;;;3.13;;
21527;SDS011;10925;49.102;-0.370;2023-06-04T12:03:04;9.75;;;2.85;;
21527;SDS011;10925;49.102;-0.370;2023-06-04T12:05:31;7.63;;;2.63;;
21527;SDS011;10925;49.102;-0.370;2023-06-04T12:11:01;11.27;;;2.97;;
21527;SDS011;10925;49.102;-0.370;2023-06-04T12:13:36;6.65;;;2.60;;
21527;SDS011;10925;49.102;-0.370;2023-06-04T12:16:03;9.93;;;2.70;;
21527;SDS011;10925;49.102;-0.370;2023-06-04T12:18:31;14.52;;;3.35;;
21527;SDS011;10925;49.102;-0.370;2023-06-04T12:20:57;9.98;;;2.17;;
21527;SDS011;10925;49.102;-0.370;2023-06-04T12:23:24;13.45;;;3.75;;
21527;SDS011;10925;49.102;-0.370;2023-06-04T12:25:53;10.82;;;2.60;;
21527;SDS011;10925;49.102;-0.370;2023-06-04T12:28:20;10.40;;;2.92;;
21527;SDS011;10925;49.102;-0.370;2023-06-04T12:30:47;8.82;;;2.28;;
21527;SDS011;10925;49.102;-0.370;2023-06-04T12:33:12;8.77;;;2.40;;
21527;SDS011;10925;49.102;-0.370;2023-06-04T12:35:38;14.77;;;3.03;;
21527;SDS011;10925;49.102;-0.370;2023-06-04T12:38:05;14.27;;;3.55;;
21527;SDS011;10925;49.102;-0.370;2023-06-04T12:40:30;12.10;;;3.40;;
21527;SDS011;10925;49.102;-0.370;2023-06-04T12:42:57;11.05;;;3.08;;
21527;SDS011;10925;49.102;-0.370;2023-06-04T12:45:24;7.68;;;2.85;;
21527;SDS011;10925;49.102;-0.370;2023-06-04T12:47:51;9.55;;;2.30;;
21527;SDS011;10925;49.102;-0.370;2023-06-04T12:50:18;6.63;;;2.28;;
21527;SDS011;10925;49.102;-0.370;2023-06-04T12:52:48;7.68;;;1.83;;
21527;SDS011;10925;49.102;-0.370;2023-06-04T12:55:13;12.05;;;3.13;;
21527;SDS011;10925;49.102;-0.370;2023-06-04T12:57:40;9.50;;;2.00;;
21527;SDS011;10925;49.102;-0.370;2023-06-04T13:00:07;9.73;;;3.03;;
21527;SDS011;10925;49.102;-0.370;2023-06-04T13:02:32;10.90;;;2.50;;
21527;SDS011;10925;49.102;-0.370;2023-06-04T13:05:00;11.00;;;2.63;;
21527;SDS011;10925;49.102;-0.370;2023-06-04T13:07:27;9.98;;;3.17;;
21527;SDS011;10925;49.102;-0.370;2023-06-04T13:09:54;9.70;;;2.70;;
21527;SDS011;10925;49.102;-0.370;2023-06-04T13:12:21;11.25;;;3.33;;
21527;SDS011;10925;49.102;-0.370;2023-06-04T13:14:48;8.65;;;2.60;;
21527;SDS011;10925;49.102;-0.370;2023-06-04T13:17:15;10.38;;;2.70;;
21527;SDS011;10925;49.102;-0.370;2023-06-04T13:19:48;11.02;;;3.08;;
21527;SDS011;10925;49.102;-0.370;2023-06-04T13:22:14;12.25;;;4.15;;
21527;SDS011;10925;49.102;-0.370;2023-06-04T13:24:41;11.25;;;3.42;;
21527;SDS011;10925;49.102;-0.370;2023-06-04T13:27:08;11.82;;;3.20;;
21527;SDS011;10925;49.102;-0.370;2023-06-04T13:29:35;11.13;;;3.70;;
21527;SDS011;10925;49.102;-0.370;2023-06-04T13:32:01;11.27;;;4.32;;
21527;SDS011;10925;49.102;-0.370;2023-06-04T13:34:26;8.38;;;4.13;;
21527;SDS011;10925;49.102;-0.370;2023-06-04T13:36:54;8.52;;;3.17;;
21527;SDS011;10925;49.102;-0.370;2023-06-04T13:39:21;11.93;;;3.50;;
21527;SDS011;10925;49.102;-0.370;2023-06-04T13:41:49;15.20;;;4.93;;
21527;SDS011;10925;49.102;-0.370;2023-06-04T13:44:17;11.75;;;3.50;;
21527;SDS011;10925;49.102;-0.370;2023-06-04T13:46:43;14.18;;;3.42;;
21527;SDS011;10925;49.102;-0.370;2023-06-04T13:49:10;10.93;;;4.18;;
21527;SDS011;10925;49.102;-0.370;2023-06-04T13:51:37;10.10;;;3.03;;
21527;SDS011;10925;49.102;-0.370;2023-06-04T13:54:04;15.23;;;3.78;;
21527;SDS011;10925;49.102;-0.370;2023-06-04T13:56:29;11.55;;;4.00;;
21527;SDS011;10925;49.102;-0.370;2023-06-04T14:01:52;12.30;;;2.80;;
21527;SDS011;10925;49.102;-0.370;2023-06-04T14:04:18;14.00;;;3.47;;
21527;SDS011;10925;49.102;-0.370;2023-06-04T14:06:45;17.15;;;3.00;;
21527;SDS011;10925;49.102;-0.370;2023-06-04T14:09:13;8.05;;;2.83;;
21527;SDS011;10925;49.102;-0.370;2023-06-04T14:11:39;10.10;;;2.60;;
21527;SDS011;10925;49.102;-0.370;2023-06-04T14:14:07;3.83;;;1.77;;
21527;SDS011;10925;49.102;-0.370;2023-06-04T14:16:34;7.88;;;2.47;;
21527;SDS011;10925;49.102;-0.370;2023-06-04T14:19:01;9.30;;;2.42;;
21527;SDS011;10925;49.102;-0.370;2023-06-04T14:21:26;8.75;;;2.88;;
21527;SDS011;10925;49.102;-0.370;2023-06-04T14:23:53;6.10;;;2.15;;
21527;SDS011;10925;49.102;-0.370;2023-06-04T14:26:31;10.25;;;3.35;;
21527;SDS011;10925;49.102;-0.370;2023-06-04T14:28:57;9.38;;;2.65;;
21527;SDS011;10925;49.102;-0.370;2023-06-04T14:31:24;8.80;;;2.88;;
21527;SDS011;10925;49.102;-0.370;2023-06-04T14:33:51;7.43;;;2.92;;
21527;SDS011;10925;49.102;-0.370;2023-06-04T14:36:17;8.13;;;2.92;;
21527;SDS011;10925;49.102;-0.370;2023-06-04T14:38:43;14.80;;;2.55;;
21527;SDS011;10925;49.102;-0.370;2023-06-04T14:41:24;11.40;;;2.78;;
21527;SDS011;10925;49.102;-0.370;2023-06-04T14:43:54;8.20;;;2.13;;
21527;SDS011;10925;49.102;-0.370;2023-06-04T14:46:23;10.27;;;2.42;;
21527;SDS011;10925;49.102;-0.370;2023-06-04T14:48:51;9.07;;;2.53;;
21527;SDS011;10925;49.102;-0.370;2023-06-04T14:51:17;10.48;;;2.33;;
21527;SDS011;10925;49.102;-0.370;2023-06-04T14:53:45;10.13;;;2.70;;